createdAt,value
2022-11-20T12:01:58.969Z,45.50
2022-11-20T12:03:42.332Z,39.25
2022-11-20T12:05:26.144Z,46.25
2022-11-20T12:07:06.070Z,48.25
2022-11-20T12:08:53.442Z,41.50
2022-11-20T12:11:10.247Z,49.25
2022-11-20T12:12:45.050Z,43.75
2022-11-20T12:14:40.584Z,45.50
2022-11-20T12:16:14.310Z,46.25
2022-11-20T12:17:46.010Z,41.50
2022-11-20T12:19:17.677Z,43.00
2022-11-20T12:21:21.547Z,45.75
2022-11-20T12:23:14.278Z,44.50
2022-11-20T12:24:57.764Z,41.00
2022-11-20T12:26:54.278Z,40.00
2022-11-20T12:28:29.858Z,42.25
2022-11-20T12:30:11.236Z,39.75
2022-11-20T12:32:17.131Z,39.75
2022-11-20T12:33:54.564Z,41.75
2022-11-20T12:36:02.877Z,36.50
2022-11-20T12:37:46.946Z,38.75
2022-11-20T12:39:44.515Z,35.50
2022-11-20T12:42:00.654Z,39.25
2022-11-20T12:43:53.920Z,40.75
2022-11-20T12:45:46.941Z,37.25
2022-11-20T12:47:36.783Z,35.75
2022-11-20T12:49:42.576Z,37.75
2022-11-20T12:51:17.308Z,41.25
2022-11-20T12:52:52.445Z,39.00
2022-11-20T12:54:54.935Z,35.75
2022-11-20T12:56:32.467Z,37.00
2022-11-20T12:58:41.279Z,36.00
2022-11-20T13:00:15.495Z,45.25
2022-11-20T13:01:51.441Z,53.75
2022-11-20T13:03:33.165Z,64.20
2022-11-20T13:05:35.590Z,71.80
2022-11-20T13:07:09.036Z,74.25
2022-11-20T13:08:42.188Z,76.75
2022-11-20T13:10:40.369Z,87.50
2022-11-20T13:12:18.885Z,89.50
2022-11-20T13:13:59.355Z,88.25
2022-11-20T13:15:36.800Z,97.00
2022-11-20T13:17:12.639Z,111.00
2022-11-20T13:18:46.204Z,116.75
2022-11-20T13:20:18.737Z,126.67
2022-11-20T13:21:51.433Z,129.67
2022-11-20T13:23:26.975Z,129.33
2022-11-20T13:24:58.639Z,138.67
2022-11-20T13:26:30.332Z,136.00
2022-11-20T13:28:11.976Z,137.00
2022-11-20T13:29:45.635Z,146.33
2022-11-20T13:31:35.071Z,136.00
2022-11-20T13:33:10.749Z,140.33
2022-11-20T13:34:58.624Z,146.00
2022-11-20T13:36:31.159Z,142.00
2022-11-20T13:38:06.811Z,141.67
2022-11-20T13:39:38.513Z,139.33
2022-11-20T13:41:28.798Z,145.67
2022-11-20T13:43:09.822Z,138.67
2022-11-20T13:44:48.098Z,138.67
2022-11-20T13:46:25.326Z,126.00
2022-11-20T13:47:57.580Z,139.67
2022-11-20T13:49:33.009Z,141.67
2022-11-20T13:51:47.284Z,121.00
2022-11-20T13:53:33.772Z,129.67
2022-11-20T13:55:28.815Z,127.33
2022-11-20T13:57:03.102Z,125.33
2022-11-20T13:58:55.919Z,120.00
2022-11-20T14:00:27.814Z,123.00
2022-11-20T14:01:59.567Z,112.75
2022-11-20T14:04:04.518Z,115.00
2022-11-20T14:05:24.038Z,114.75
2022-11-20T14:06:55.759Z,106.75
2022-11-20T14:08:49.218Z,103.25
2022-11-20T14:10:31.715Z,104.75
2022-11-20T14:12:04.931Z,100.00
2022-11-20T14:13:36.775Z,109.25
2022-11-20T14:15:29.212Z,96.00
2022-11-20T14:17:19.264Z,111.25
2022-11-20T14:18:55.091Z,100.75
2022-11-20T14:20:30.041Z,95.00
2022-11-20T14:22:08.182Z,91.50
2022-11-20T14:23:47.432Z,86.75
2022-11-20T14:25:24.269Z,82.25
2022-11-20T14:26:56.015Z,78.00
2022-11-20T14:28:29.832Z,76.75
2022-11-20T14:30:01.871Z,60.50
2022-11-20T14:31:33.950Z,70.00
2022-11-20T14:33:05.987Z,232.25
2022-11-20T14:34:44.200Z,137.33
2022-11-20T14:36:19.396Z,131.33
2022-11-20T14:37:51.109Z,126.00
2022-11-20T14:39:23.149Z,118.75
2022-11-20T14:40:54.889Z,112.50
2022-11-20T14:42:27.582Z,114.00
2022-11-20T14:43:59.277Z,112.25
2022-11-20T14:45:30.961Z,106.50
2022-11-20T14:47:03.368Z,106.50
2022-11-20T14:48:48.490Z,104.25
2022-11-20T14:50:28.181Z,104.00
2022-11-20T14:52:01.029Z,98.75
2022-11-20T14:53:32.682Z,106.00
2022-11-20T14:55:04.702Z,97.50
2022-11-20T14:56:36.439Z,95.25
2022-11-20T14:58:22.946Z,95.00
2022-11-20T15:00:12.649Z,91.75
2022-11-20T15:01:44.299Z,93.50
2022-11-20T15:03:16.468Z,99.50
2022-11-20T15:04:52.354Z,102.50
2022-11-20T15:06:26.900Z,90.75
2022-11-20T15:08:09.459Z,85.75
2022-11-20T15:09:41.128Z,83.00
2022-11-20T15:11:38.821Z,85.50
2022-11-20T15:13:14.761Z,74.75
2022-11-20T15:14:46.453Z,77.25
2022-11-20T15:16:22.302Z,75.50
2022-11-20T15:17:53.963Z,76.00
2022-11-20T15:19:26.601Z,73.80
2022-11-20T15:20:59.454Z,75.50
2022-11-20T15:22:31.127Z,70.80
2022-11-20T15:27:20.439Z,73.40
2022-11-20T15:28:52.214Z,72.80
2022-11-20T15:30:24.193Z,71.75
2022-11-20T15:31:57.026Z,66.20
2022-11-20T15:33:28.754Z,71.60
2022-11-20T15:35:00.373Z,73.40
2022-11-20T15:36:32.156Z,74.60
2022-11-20T15:38:03.799Z,74.00
2022-11-20T15:39:35.464Z,72.60
2022-11-20T15:41:07.346Z,73.60
2022-11-20T15:42:39.054Z,77.25
2022-11-20T15:44:10.897Z,77.75
2022-11-20T15:45:46.711Z,74.00
2022-11-20T15:47:18.390Z,77.75
2022-11-20T15:48:54.731Z,69.20
2022-11-20T15:50:34.964Z,74.00
2022-11-20T15:52:06.654Z,76.75
2022-11-20T15:53:41.910Z,72.50
2022-11-20T15:55:13.581Z,77.00
2022-11-20T15:56:45.293Z,81.25
2022-11-20T15:58:19.942Z,75.00
2022-11-20T15:59:51.672Z,79.00
2022-11-20T16:01:23.495Z,79.25
2022-11-20T16:02:55.274Z,84.50
2022-11-20T16:04:27.149Z,81.50
2022-11-20T16:05:58.936Z,82.75
2022-11-20T16:07:30.680Z,80.75
2022-11-20T16:09:02.433Z,80.50
2022-11-20T16:10:34.313Z,79.75
2022-11-20T16:12:06.406Z,84.75
2022-11-20T16:13:56.877Z,82.00
2022-11-20T16:15:47.539Z,83.50
2022-11-20T16:17:39.261Z,124.25
2022-11-20T16:19:12.908Z,140.33
2022-11-20T16:20:49.184Z,157.67
2022-11-20T16:22:20.879Z,123.67
2022-11-20T16:23:52.606Z,119.75
2022-11-20T16:25:24.719Z,102.50
2022-11-20T16:26:56.486Z,97.50
2022-11-20T16:28:28.204Z,101.75
2022-11-20T16:29:59.877Z,102.75
2022-11-20T16:31:31.623Z,98.25
2022-11-20T16:33:03.524Z,106.00
2022-11-20T16:34:35.230Z,120.00
2022-11-20T16:36:14.009Z,119.75
2022-11-20T16:37:45.720Z,121.25
2022-11-20T16:39:23.164Z,118.50
2022-11-20T16:41:01.492Z,121.67
2022-11-20T16:42:36.434Z,125.00
2022-11-20T16:44:10.168Z,133.00
2022-11-20T16:45:42.946Z,127.00
2022-11-20T16:47:14.734Z,131.00
2022-11-20T16:48:52.813Z,126.00
2022-11-20T16:50:24.508Z,130.00
2022-11-20T16:51:56.639Z,119.33
2022-11-20T16:53:28.345Z,120.33
2022-11-20T16:55:00.029Z,127.67
2022-11-20T16:56:32.067Z,130.00
2022-11-20T16:58:03.752Z,124.00
2022-11-20T16:59:35.502Z,126.00
2022-11-20T17:01:10.983Z,126.00
2022-11-20T17:02:42.728Z,122.67
2022-11-20T17:04:14.673Z,114.33
2022-11-20T17:05:46.404Z,125.00
2022-11-20T17:07:18.144Z,128.25
2022-11-20T17:08:49.924Z,116.75
2022-11-20T17:10:21.599Z,121.25
2022-11-20T17:11:53.684Z,123.75
2022-11-20T17:13:25.351Z,112.50
2022-11-20T17:14:57.200Z,113.25
2022-11-20T17:16:28.905Z,109.50
2022-11-20T17:18:02.690Z,118.25
2022-11-20T17:19:34.397Z,113.50
2022-11-20T17:21:06.319Z,115.25
2022-11-20T17:22:38.468Z,116.50
2022-11-20T17:24:11.787Z,127.33
2022-11-20T17:25:43.500Z,119.00
2022-11-20T17:27:15.222Z,131.00
2022-11-20T17:28:47.099Z,127.33
2022-11-20T17:30:18.790Z,128.67
2022-11-20T17:31:50.600Z,129.33
2022-11-20T17:33:22.284Z,126.33
2022-11-20T17:34:53.933Z,119.00
2022-11-20T17:36:25.647Z,120.33
2022-11-20T17:37:57.552Z,121.67
2022-11-20T17:39:29.360Z,116.00
2022-11-20T17:41:08.153Z,122.50
2022-11-20T17:42:39.811Z,122.00
2022-11-20T17:44:11.909Z,115.50
2022-11-20T17:45:44.251Z,114.75
2022-11-20T17:47:16.452Z,117.00
2022-11-20T17:48:48.516Z,103.00
2022-11-20T17:50:20.235Z,129.00
2022-11-20T17:51:51.917Z,131.00
2022-11-20T17:53:23.647Z,139.00
2022-11-20T17:54:56.114Z,141.33
2022-11-20T17:56:50.336Z,136.67
2022-11-20T17:58:22.062Z,139.00
2022-11-20T17:59:53.822Z,135.67
2022-11-20T18:01:25.907Z,140.33
2022-11-20T18:02:57.730Z,132.67
2022-11-20T18:04:29.525Z,123.67
2022-11-20T18:06:17.206Z,134.33
2022-11-20T18:07:52.584Z,132.33
2022-11-20T18:09:24.757Z,130.00
2022-11-20T18:10:56.395Z,129.33
2022-11-20T18:12:28.128Z,163.50
2022-11-20T18:14:19.143Z,166.00
2022-11-20T18:15:50.946Z,144.67
2022-11-20T18:17:22.602Z,131.67
2022-11-20T18:18:55.603Z,130.67
2022-11-20T18:20:30.189Z,120.75
2022-11-20T18:22:05.262Z,117.75
2022-11-20T18:23:37.031Z,111.75
2022-11-20T18:25:09.178Z,113.75
2022-11-20T18:26:44.243Z,108.50
2022-11-20T18:28:16.286Z,111.25
2022-11-20T18:29:52.200Z,108.00
2022-11-20T18:31:24.206Z,107.25
2022-11-20T18:32:56.047Z,104.75
2022-11-20T18:34:28.123Z,102.25
2022-11-20T18:36:11.062Z,102.75
2022-11-20T18:37:42.880Z,93.25
2022-11-20T18:39:14.883Z,99.75
2022-11-20T18:40:47.551Z,99.00
2022-11-20T18:42:38.000Z,95.25
2022-11-20T18:44:47.716Z,96.00
2022-11-20T18:46:21.929Z,97.50
2022-11-20T18:47:53.604Z,88.75
2022-11-20T18:49:25.531Z,95.00
2022-11-20T18:51:05.653Z,94.00
2022-11-20T18:52:41.761Z,98.50
2022-11-20T18:54:13.920Z,88.50
2022-11-20T18:55:45.627Z,100.75
2022-11-20T18:57:18.663Z,99.00
2022-11-20T18:58:50.372Z,101.75
2022-11-20T19:00:23.972Z,102.00
2022-11-20T19:01:55.838Z,101.50
2022-11-20T19:03:27.556Z,98.75
2022-11-20T19:04:59.324Z,103.25
2022-11-20T19:06:30.993Z,94.50
2022-11-20T19:08:02.745Z,89.00
2022-11-20T19:09:34.773Z,101.75
2022-11-20T19:11:07.450Z,97.00
2022-11-20T19:12:39.188Z,97.75
2022-11-20T19:14:10.960Z,98.25
2022-11-20T19:15:42.658Z,97.75
2022-11-20T19:17:14.602Z,94.75
2022-11-20T19:18:48.403Z,100.75
2022-11-20T19:20:20.653Z,100.00
2022-11-20T19:21:52.470Z,96.50
2022-11-20T19:23:24.270Z,89.75
2022-11-20T19:24:56.046Z,109.00
2022-11-20T19:26:27.767Z,118.75
2022-11-20T19:27:59.768Z,115.33
2022-11-20T19:29:31.468Z,119.67
2022-11-20T19:31:11.098Z,130.00
2022-11-20T19:32:42.916Z,124.67
2022-11-20T19:34:14.883Z,131.67
2022-11-20T19:35:46.569Z,126.00
2022-11-20T19:37:18.760Z,134.33
2022-11-20T19:38:51.315Z,133.33
2022-11-20T19:40:23.000Z,124.00
2022-11-20T19:41:54.774Z,135.67
2022-11-20T19:43:26.450Z,136.33
2022-11-20T19:44:58.327Z,126.00
2022-11-20T19:46:30.790Z,136.00
2022-11-20T19:48:09.594Z,142.00
2022-11-20T19:49:41.919Z,142.33
2022-11-20T19:51:15.590Z,139.33
2022-11-20T19:52:47.317Z,131.67
2022-11-20T19:54:19.181Z,299.75
2022-11-20T19:55:57.379Z,204.75
2022-11-20T19:57:29.134Z,194.00
2022-11-20T19:59:01.036Z,195.75
2022-11-20T20:00:33.103Z,184.25
2022-11-20T20:02:04.890Z,170.25
2022-11-20T20:03:36.823Z,170.75
2022-11-20T20:05:08.805Z,175.50
2022-11-20T20:06:41.653Z,167.00
2022-11-20T20:08:16.973Z,169.25
2022-11-20T20:09:48.943Z,152.00
2022-11-20T20:11:21.733Z,161.75
2022-11-20T20:12:53.610Z,154.25
2022-11-20T20:14:25.269Z,157.25
2022-11-20T20:15:57.182Z,154.00
2022-11-20T20:17:28.830Z,170.75
2022-11-20T20:19:01.918Z,159.25
2022-11-20T20:20:33.705Z,158.75
2022-11-20T20:22:05.426Z,143.25
2022-11-20T20:23:37.269Z,130.67
2022-11-20T20:25:09.060Z,135.00
2022-11-20T20:26:41.051Z,128.67
2022-11-20T20:28:12.675Z,123.67
2022-11-20T20:29:44.423Z,118.33
2022-11-20T20:31:17.867Z,123.67
2022-11-20T20:32:54.813Z,130.67
2022-11-20T20:34:32.123Z,132.67
2022-11-20T20:36:07.623Z,128.67
2022-11-20T20:37:39.256Z,132.33
2022-11-20T20:39:10.998Z,135.33
2022-11-20T20:40:51.533Z,133.33
2022-11-20T20:42:23.176Z,127.00
2022-11-20T20:44:13.786Z,126.67
2022-11-20T20:45:48.419Z,118.67
2022-11-20T20:47:20.100Z,122.67
2022-11-20T20:48:54.666Z,120.67
2022-11-20T20:50:26.737Z,122.33
2022-11-20T20:51:58.401Z,118.67
2022-11-20T20:53:30.631Z,120.75
2022-11-20T20:55:02.427Z,116.25
2022-11-20T20:56:34.214Z,119.50
2022-11-20T20:58:05.951Z,114.25
2022-11-20T20:59:37.630Z,129.00
2022-11-20T21:01:11.448Z,134.33
2022-11-20T21:02:43.110Z,128.33
2022-11-20T21:04:14.979Z,133.00
2022-11-20T21:05:46.796Z,139.33
2022-11-20T21:07:18.689Z,126.67
2022-11-20T21:08:50.744Z,135.67
2022-11-20T21:10:23.940Z,132.67
2022-11-20T21:11:55.915Z,131.33
2022-11-20T21:13:27.637Z,126.33
2022-11-20T21:14:59.365Z,128.67
2022-11-20T21:16:40.833Z,132.00
2022-11-20T21:18:12.613Z,133.67
2022-11-20T21:19:44.336Z,119.67
2022-11-20T21:21:34.615Z,117.00
2022-11-20T21:23:10.134Z,109.67
2022-11-20T21:24:41.919Z,114.50
2022-11-20T21:26:13.883Z,116.75
2022-11-20T21:27:45.479Z,110.25
2022-11-20T21:29:17.111Z,110.75
2022-11-20T21:30:48.858Z,110.25
2022-11-20T21:32:20.497Z,106.50
2022-11-20T21:33:53.360Z,105.75
2022-11-20T21:35:25.067Z,105.50
2022-11-20T21:36:56.797Z,106.75
2022-11-20T21:38:28.611Z,102.75
2022-11-20T21:40:00.228Z,98.00
2022-11-20T21:41:31.928Z,97.00
2022-11-20T21:43:03.607Z,90.25
2022-11-20T21:44:35.415Z,94.75
2022-11-20T21:46:08.292Z,93.00
2022-11-20T21:47:39.898Z,92.25
2022-11-20T21:49:11.941Z,87.00
2022-11-20T21:50:43.721Z,76.75
2022-11-20T21:52:15.442Z,88.50
2022-11-20T21:53:47.998Z,82.00
2022-11-20T21:55:19.965Z,77.00
2022-11-20T21:56:51.748Z,77.00
2022-11-20T21:58:23.403Z,77.50
2022-11-20T21:59:55.075Z,81.50
2022-11-20T22:01:28.566Z,76.00
2022-11-20T22:03:00.456Z,79.25
2022-11-20T22:04:32.465Z,73.75
2022-11-20T22:06:04.968Z,77.75
2022-11-20T22:07:36.684Z,75.75
2022-11-20T22:09:09.958Z,71.50
2022-11-20T22:10:41.573Z,70.00
2022-11-20T22:12:13.568Z,71.75
2022-11-20T22:14:03.709Z,69.50
2022-11-20T22:15:59.369Z,65.00
2022-11-20T22:17:45.269Z,61.20
2022-11-20T22:19:18.895Z,60.40
2022-11-20T22:20:50.562Z,67.20
2022-11-20T22:22:22.332Z,61.40
2022-11-20T22:23:54.188Z,62.00
2022-11-20T22:25:25.887Z,61.80
2022-11-20T22:26:58.428Z,57.20
2022-11-20T22:28:30.258Z,53.60
2022-11-20T22:30:01.919Z,60.25
2022-11-20T22:31:33.693Z,57.25
2022-11-20T22:33:10.385Z,60.00
2022-11-20T22:34:44.861Z,59.25
2022-11-20T22:36:21.262Z,57.75
2022-11-20T22:37:52.919Z,59.25
2022-11-20T22:39:24.855Z,60.50
2022-11-20T22:41:06.085Z,57.25
2022-11-20T22:42:37.776Z,57.00
2022-11-20T22:44:13.133Z,56.25
2022-11-20T22:45:45.815Z,59.40
2022-11-20T22:47:17.550Z,57.25
2022-11-20T22:48:53.125Z,59.00
2022-11-20T22:50:24.835Z,63.60
2022-11-20T22:51:56.494Z,58.40
2022-11-20T22:53:28.352Z,62.40
2022-11-20T22:55:00.009Z,60.00
2022-11-20T22:56:31.920Z,62.80
2022-11-20T22:58:03.628Z,80.50
2022-11-20T22:59:35.285Z,83.50
2022-11-20T23:01:09.806Z,99.25
2022-11-20T23:02:45.122Z,98.75
2022-11-20T23:04:16.804Z,105.00
2022-11-20T23:05:49.643Z,102.00
2022-11-20T23:07:21.719Z,106.00
2022-11-20T23:08:53.538Z,109.50
2022-11-20T23:10:25.223Z,114.50
2022-11-20T23:11:56.834Z,112.75
2022-11-20T23:13:29.123Z,112.25
2022-11-20T23:15:01.354Z,114.75
2022-11-20T23:16:33.449Z,120.00
2022-11-20T23:18:05.180Z,119.50
2022-11-20T23:19:36.853Z,117.00
2022-11-20T23:21:09.686Z,111.50
2022-11-20T23:22:41.412Z,119.00
2022-11-20T23:24:13.205Z,112.50
2022-11-20T23:25:44.944Z,113.00
2022-11-20T23:27:19.671Z,121.50
2022-11-20T23:28:53.197Z,111.50
2022-11-20T23:30:24.864Z,116.00
2022-11-20T23:31:56.518Z,106.75
2022-11-20T23:33:28.225Z,113.50
2022-11-20T23:34:59.941Z,144.67
